Search for airport 
image banner adimage banner adimage banner ad
image banner ad

9PN1 - Seitz Field

Located in Perryopolis, United States

ICAO - 9PN1, IATA -

Data provided by Airmate  

General information

Coordinates: N40°2'20" W79°47'24"
Elevation is 1240 feet MSL.
Magnetic variation is -08° East
View others Airports in Pennsylvania

Operational data

Special qualification required
Current time UTC:
Current local time:
Weather at : KAGC - Allegheny County ( 37 km )
METAR: KAGC 091553Z VRB06KT 4SM -RA BR BKN007 OVC048 05/04 A2989 RMK AO2 SLP131 P0002 T00500044
TAF: KAGC 091456Z 0915/1012 10010KT P6SM VCSH SCT007 OVC040 TEMPO 0915/0918 4SM -SHRA FM091800 08008KT 3SM SHRA OVC007 FM092300 01005KT 4SM -SHRA OVC009 FM100500 35006KT 5SM BR OVC004 FM101000 32006KT P6SM BKN010
View NOTAMs / SUP AIP / TFR affecting this airport [VIEW]
Communications frequencies: [VIEW]

Runways:

RWY identifierQFULength (ft)Width (ft)SurfaceLDA (ft)
161500100GRASS
341500100GRASS

Airport contact information

Address: Perryopolis United States

Satellite view of 9PN1